sensor_id;sensor_type;location;lat;lon;timestamp;P1;durP1;ratioP1;P2;durP2;ratioP2
6292;SDS011;3179;54.350;10.102;2022-09-13T00:00:39;2.70;;;2.40;;
6292;SDS011;3179;54.350;10.102;2022-09-13T00:03:06;2.87;;;2.63;;
6292;SDS011;3179;54.350;10.102;2022-09-13T00:05:34;2.87;;;2.03;;
6292;SDS011;3179;54.350;10.102;2022-09-13T00:08:01;3.43;;;2.50;;
6292;SDS011;3179;54.350;10.102;2022-09-13T00:10:29;3.87;;;2.90;;
6292;SDS011;3179;54.350;10.102;2022-09-13T00:12:57;4.53;;;2.63;;
6292;SDS011;3179;54.350;10.102;2022-09-13T00:15:24;2.67;;;2.50;;
6292;SDS011;3179;54.350;10.102;2022-09-13T00:17:52;2.77;;;2.57;;
6292;SDS011;3179;54.350;10.102;2022-09-13T00:20:18;2.70;;;2.50;;
6292;SDS011;3179;54.350;10.102;2022-09-13T00:22:45;2.97;;;2.67;;
6292;SDS011;3179;54.350;10.102;2022-09-13T00:25:12;2.67;;;2.43;;
6292;SDS011;3179;54.350;10.102;2022-09-13T00:27:39;2.93;;;2.50;;
6292;SDS011;3179;54.350;10.102;2022-09-13T00:30:06;4.67;;;2.90;;
6292;SDS011;3179;54.350;10.102;2022-09-13T00:32:34;5.03;;;3.27;;
6292;SDS011;3179;54.350;10.102;2022-09-13T00:35:02;3.17;;;2.60;;
6292;SDS011;3179;54.350;10.102;2022-09-13T00:37:30;3.00;;;2.80;;
6292;SDS011;3179;54.350;10.102;2022-09-13T00:39:58;4.23;;;3.07;;
6292;SDS011;3179;54.350;10.102;2022-09-13T00:42:25;2.70;;;2.50;;
6292;SDS011;3179;54.350;10.102;2022-09-13T00:44:54;2.73;;;2.53;;
6292;SDS011;3179;54.350;10.102;2022-09-13T00:47:24;3.20;;;2.90;;
6292;SDS011;3179;54.350;10.102;2022-09-13T00:49:56;3.90;;;3.10;;
6292;SDS011;3179;54.350;10.102;2022-09-13T00:52:28;3.30;;;3.00;;
6292;SDS011;3179;54.350;10.102;2022-09-13T00:54:59;3.97;;;3.13;;
6292;SDS011;3179;54.350;10.102;2022-09-13T00:57:30;3.03;;;2.73;;
6292;SDS011;3179;54.350;10.102;2022-09-13T01:00:01;4.00;;;3.20;;
6292;SDS011;3179;54.350;10.102;2022-09-13T01:02:35;3.73;;;3.43;;
6292;SDS011;3179;54.350;10.102;2022-09-13T01:05:03;3.53;;;3.23;;
6292;SDS011;3179;54.350;10.102;2022-09-13T01:07:31;3.70;;;3.40;;
6292;SDS011;3179;54.350;10.102;2022-09-13T01:09:59;4.27;;;3.47;;
6292;SDS011;3179;54.350;10.102;2022-09-13T01:12:29;5.67;;;3.47;;
6292;SDS011;3179;54.350;10.102;2022-09-13T01:15:03;4.60;;;3.70;;
6292;SDS011;3179;54.350;10.102;2022-09-13T01:17:30;3.93;;;3.53;;
6292;SDS011;3179;54.350;10.102;2022-09-13T01:19:59;4.10;;;3.50;;
6292;SDS011;3179;54.350;10.102;2022-09-13T01:28:57;6.30;;;3.90;;
6292;SDS011;3179;54.350;10.102;2022-09-13T01:31:58;3.30;;;3.00;;
6292;SDS011;3179;54.350;10.102;2022-09-13T01:34:38;4.13;;;3.73;;
6292;SDS011;3179;54.350;10.102;2022-09-13T01:40:03;3.90;;;3.60;;
6292;SDS011;3179;54.350;10.102;2022-09-13T01:42:40;4.47;;;3.43;;
6292;SDS011;3179;54.350;10.102;2022-09-13T01:45:20;3.67;;;3.37;;
6292;SDS011;3179;54.350;10.102;2022-09-13T01:47:54;3.57;;;3.27;;
6292;SDS011;3179;54.350;10.102;2022-09-13T01:50:26;6.37;;;4.50;;
6292;SDS011;3179;54.350;10.102;2022-09-13T01:53:02;4.00;;;3.60;;
6292;SDS011;3179;54.350;10.102;2022-09-13T01:55:37;6.13;;;4.57;;
6292;SDS011;3179;54.350;10.102;2022-09-13T01:58:12;4.53;;;4.10;;
6292;SDS011;3179;54.350;10.102;2022-09-13T02:00:50;5.03;;;4.53;;
6292;SDS011;3179;54.350;10.102;2022-09-13T02:03:23;5.83;;;4.40;;
6292;SDS011;3179;54.350;10.102;2022-09-13T02:05:55;8.47;;;4.60;;
6292;SDS011;3179;54.350;10.102;2022-09-13T02:08:27;5.57;;;5.07;;
6292;SDS011;3179;54.350;10.102;2022-09-13T02:11:03;7.27;;;5.03;;
6292;SDS011;3179;54.350;10.102;2022-09-13T02:13:35;5.50;;;5.00;;
6292;SDS011;3179;54.350;10.102;2022-09-13T02:16:06;7.13;;;5.93;;
6292;SDS011;3179;54.350;10.102;2022-09-13T02:18:38;7.20;;;5.47;;
6292;SDS011;3179;54.350;10.102;2022-09-13T02:21:10;5.40;;;4.90;;
6292;SDS011;3179;54.350;10.102;2022-09-13T02:23:40;4.87;;;4.43;;
6292;SDS011;3179;54.350;10.102;2022-09-13T02:26:09;6.20;;;4.87;;
6292;SDS011;3179;54.350;10.102;2022-09-13T02:28:40;5.73;;;5.20;;
6292;SDS011;3179;54.350;10.102;2022-09-13T02:31:12;8.63;;;5.77;;
6292;SDS011;3179;54.350;10.102;2022-09-13T02:33:44;5.30;;;4.70;;
6292;SDS011;3179;54.350;10.102;2022-09-13T02:36:18;5.67;;;5.17;;
6292;SDS011;3179;54.350;10.102;2022-09-13T02:38:49;7.70;;;5.80;;
6292;SDS011;3179;54.350;10.102;2022-09-13T02:41:20;7.70;;;5.63;;
6292;SDS011;3179;54.350;10.102;2022-09-13T02:43:52;8.33;;;5.57;;
6292;SDS011;3179;54.350;10.102;2022-09-13T02:46:28;7.13;;;6.17;;
6292;SDS011;3179;54.350;10.102;2022-09-13T02:49:09;6.33;;;5.67;;
6292;SDS011;3179;54.350;10.102;2022-09-13T02:51:42;8.07;;;6.03;;
6292;SDS011;3179;54.350;10.102;2022-09-13T02:54:19;6.57;;;5.97;;
6292;SDS011;3179;54.350;10.102;2022-09-13T02:56:53;7.30;;;5.80;;
6292;SDS011;3179;54.350;10.102;2022-09-13T02:59:24;8.23;;;5.53;;
6292;SDS011;3179;54.350;10.102;2022-09-13T03:01:53;7.23;;;6.43;;
6292;SDS011;3179;54.350;10.102;2022-09-13T03:04:26;6.20;;;5.60;;
6292;SDS011;3179;54.350;10.102;2022-09-13T03:06:53;6.20;;;5.50;;
6292;SDS011;3179;54.350;10.102;2022-09-13T03:09:20;14.23;;;6.90;;
6292;SDS011;3179;54.350;10.102;2022-09-13T03:11:55;8.90;;;6.70;;
6292;SDS011;3179;54.350;10.102;2022-09-13T03:14:38;7.77;;;6.27;;
6292;SDS011;3179;54.350;10.102;2022-09-13T03:17:16;7.40;;;6.03;;
6292;SDS011;3179;54.350;10.102;2022-09-13T03:20:02;8.13;;;6.07;;
6292;SDS011;3179;54.350;10.102;2022-09-13T03:22:57;9.20;;;7.60;;
6292;SDS011;3179;54.350;10.102;2022-09-13T03:25:42;7.13;;;6.43;;
6292;SDS011;3179;54.350;10.102;2022-09-13T03:28:23;7.93;;;6.90;;
6292;SDS011;3179;54.350;10.102;2022-09-13T03:31:01;10.23;;;7.57;;
6292;SDS011;3179;54.350;10.102;2022-09-13T03:33:34;7.60;;;6.77;;
6292;SDS011;3179;54.350;10.102;2022-09-13T03:36:10;9.53;;;6.97;;
6292;SDS011;3179;54.350;10.102;2022-09-13T03:38:44;7.57;;;6.70;;
6292;SDS011;3179;54.350;10.102;2022-09-13T03:41:21;8.60;;;7.70;;
6292;SDS011;3179;54.350;10.102;2022-09-13T03:43:53;10.93;;;8.70;;
6292;SDS011;3179;54.350;10.102;2022-09-13T03:46:25;10.80;;;7.73;;
6292;SDS011;3179;54.350;10.102;2022-09-13T03:48:55;8.97;;;8.13;;
6292;SDS011;3179;54.350;10.102;2022-09-13T03:51:24;9.20;;;7.30;;
6292;SDS011;3179;54.350;10.102;2022-09-13T03:53:53;10.53;;;7.80;;
6292;SDS011;3179;54.350;10.102;2022-09-13T03:56:24;11.00;;;8.60;;
6292;SDS011;3179;54.350;10.102;2022-09-13T03:58:51;10.23;;;8.73;;
6292;SDS011;3179;54.350;10.102;2022-09-13T04:01:19;13.07;;;9.47;;
6292;SDS011;3179;54.350;10.102;2022-09-13T04:03:47;10.77;;;9.30;;
6292;SDS011;3179;54.350;10.102;2022-09-13T04:06:14;13.53;;;9.93;;
6292;SDS011;3179;54.350;10.102;2022-09-13T04:08:42;11.30;;;9.37;;
6292;SDS011;3179;54.350;10.102;2022-09-13T04:11:09;14.17;;;9.23;;
6292;SDS011;3179;54.350;10.102;2022-09-13T04:13:36;12.53;;;10.70;;
6292;SDS011;3179;54.350;10.102;2022-09-13T04:16:04;14.47;;;11.20;;
6292;SDS011;3179;54.350;10.102;2022-09-13T04:18:32;14.57;;;9.90;;
6292;SDS011;3179;54.350;10.102;2022-09-13T04:20:59;13.40;;;9.63;;
6292;SDS011;3179;54.350;10.102;2022-09-13T04:23:27;11.17;;;9.57;;
6292;SDS011;3179;54.350;10.102;2022-09-13T04:26:00;11.60;;;9.67;;
6292;SDS011;3179;54.350;10.102;2022-09-13T04:28:28;11.13;;;9.57;;
6292;SDS011;3179;54.350;10.102;2022-09-13T04:30:54;12.90;;;10.50;;
6292;SDS011;3179;54.350;10.102;2022-09-13T04:33:21;15.00;;;11.03;;
6292;SDS011;3179;54.350;10.102;2022-09-13T04:35:52;11.90;;;9.80;;
6292;SDS011;3179;54.350;10.102;2022-09-13T04:38:22;12.00;;;9.90;;
6292;SDS011;3179;54.350;10.102;2022-09-13T04:40:52;13.60;;;10.07;;
6292;SDS011;3179;54.350;10.102;2022-09-13T04:43:21;14.57;;;10.80;;
6292;SDS011;3179;54.350;10.102;2022-09-13T04:45:48;13.50;;;10.87;;
6292;SDS011;3179;54.350;10.102;2022-09-13T04:48:15;10.90;;;9.63;;
6292;SDS011;3179;54.350;10.102;2022-09-13T04:50:42;13.47;;;10.80;;
6292;SDS011;3179;54.350;10.102;2022-09-13T04:53:08;14.07;;;10.20;;
6292;SDS011;3179;54.350;10.102;2022-09-13T04:55:35;11.43;;;9.43;;
6292;SDS011;3179;54.350;10.102;2022-09-13T04:58:02;13.57;;;9.87;;
6292;SDS011;3179;54.350;10.102;2022-09-13T05:00:31;13.30;;;8.60;;
6292;SDS011;3179;54.350;10.102;2022-09-13T05:02:58;9.87;;;8.67;;
6292;SDS011;3179;54.350;10.102;2022-09-13T05:05:25;12.10;;;8.90;;
6292;SDS011;3179;54.350;10.102;2022-09-13T05:07:53;14.00;;;10.07;;
6292;SDS011;3179;54.350;10.102;2022-09-13T05:10:20;13.67;;;9.40;;
6292;SDS011;3179;54.350;10.102;2022-09-13T05:12:46;13.63;;;8.87;;
6292;SDS011;3179;54.350;10.102;2022-09-13T05:15:13;13.07;;;9.70;;
6292;SDS011;3179;54.350;10.102;2022-09-13T05:17:41;10.37;;;9.17;;
6292;SDS011;3179;54.350;10.102;2022-09-13T05:20:09;12.00;;;9.60;;
6292;SDS011;3179;54.350;10.102;2022-09-13T05:22:36;14.00;;;8.90;;
6292;SDS011;3179;54.350;10.102;2022-09-13T05:25:03;19.03;;;9.07;;
6292;SDS011;3179;54.350;10.102;2022-09-13T05:27:31;12.40;;;8.10;;
6292;SDS011;3179;54.350;10.102;2022-09-13T05:29:58;11.53;;;8.67;;
6292;SDS011;3179;54.350;10.102;2022-09-13T05:32:24;13.13;;;8.53;;
6292;SDS011;3179;54.350;10.102;2022-09-13T05:34:53;10.60;;;8.00;;
6292;SDS011;3179;54.350;10.102;2022-09-13T05:37:19;11.70;;;7.70;;
6292;SDS011;3179;54.350;10.102;2022-09-13T05:39:46;9.90;;;7.90;;
6292;SDS011;3179;54.350;10.102;2022-09-13T05:42:13;15.77;;;8.40;;
6292;SDS011;3179;54.350;10.102;2022-09-13T05:44:40;14.20;;;8.73;;
6292;SDS011;3179;54.350;10.102;2022-09-13T05:47:06;11.30;;;7.53;;
6292;SDS011;3179;54.350;10.102;2022-09-13T05:49:33;8.00;;;6.30;;
6292;SDS011;3179;54.350;10.102;2022-09-13T05:52:02;12.00;;;7.20;;
6292;SDS011;3179;54.350;10.102;2022-09-13T05:54:28;11.03;;;6.20;;
6292;SDS011;3179;54.350;10.102;2022-09-13T05:56:55;10.53;;;6.00;;
6292;SDS011;3179;54.350;10.102;2022-09-13T05:59:22;5.27;;;4.40;;
6292;SDS011;3179;54.350;10.102;2022-09-13T06:01:49;7.20;;;4.90;;
6292;SDS011;3179;54.350;10.102;2022-09-13T06:04:16;7.60;;;5.57;;
6292;SDS011;3179;54.350;10.102;2022-09-13T06:06:43;9.80;;;4.77;;
6292;SDS011;3179;54.350;10.102;2022-09-13T06:09:11;6.10;;;4.43;;
6292;SDS011;3179;54.350;10.102;2022-09-13T06:11:38;6.90;;;4.53;;
6292;SDS011;3179;54.350;10.102;2022-09-13T06:14:05;6.77;;;3.93;;
6292;SDS011;3179;54.350;10.102;2022-09-13T06:16:32;8.27;;;3.30;;
6292;SDS011;3179;54.350;10.102;2022-09-13T06:18:59;12.17;;;3.77;;
6292;SDS011;3179;54.350;10.102;2022-09-13T06:21:26;5.70;;;2.83;;
6292;SDS011;3179;54.350;10.102;2022-09-13T06:23:52;7.10;;;2.73;;
6292;SDS011;3179;54.350;10.102;2022-09-13T06:26:21;6.00;;;1.70;;
6292;SDS011;3179;54.350;10.102;2022-09-13T06:28:50;8.30;;;1.70;;
6292;SDS011;3179;54.350;10.102;2022-09-13T06:31:19;6.07;;;1.90;;
6292;SDS011;3179;54.350;10.102;2022-09-13T06:33:48;10.13;;;2.07;;
6292;SDS011;3179;54.350;10.102;2022-09-13T06:36:21;4.40;;;1.40;;
6292;SDS011;3179;54.350;10.102;2022-09-13T06:38:48;6.43;;;1.67;;
6292;SDS011;3179;54.350;10.102;2022-09-13T06:41:15;5.10;;;1.37;;
6292;SDS011;3179;54.350;10.102;2022-09-13T06:43:45;5.10;;;1.23;;
6292;SDS011;3179;54.350;10.102;2022-09-13T06:46:13;3.57;;;1.30;;
6292;SDS011;3179;54.350;10.102;2022-09-13T06:48:42;5.00;;;1.30;;
6292;SDS011;3179;54.350;10.102;2022-09-13T06:51:10;6.03;;;1.57;;
6292;SDS011;3179;54.350;10.102;2022-09-13T06:53:38;2.97;;;1.37;;
6292;SDS011;3179;54.350;10.102;2022-09-13T06:56:06;3.47;;;1.33;;
6292;SDS011;3179;54.350;10.102;2022-09-13T06:58:35;7.90;;;2.10;;
6292;SDS011;3179;54.350;10.102;2022-09-13T07:01:08;5.00;;;1.70;;
6292;SDS011;3179;54.350;10.102;2022-09-13T07:03:40;5.93;;;1.73;;
6292;SDS011;3179;54.350;10.102;2022-09-13T07:06:09;5.80;;;1.40;;
6292;SDS011;3179;54.350;10.102;2022-09-13T07:08:37;3.00;;;1.17;;
6292;SDS011;3179;54.350;10.102;2022-09-13T07:11:05;7.50;;;1.90;;
6292;SDS011;3179;54.350;10.102;2022-09-13T07:13:32;3.90;;;1.63;;
6292;SDS011;3179;54.350;10.102;2022-09-13T07:16:02;4.77;;;1.17;;
6292;SDS011;3179;54.350;10.102;2022-09-13T07:18:32;3.60;;;1.60;;
6292;SDS011;3179;54.350;10.102;2022-09-13T07:20:59;2.63;;;1.10;;
6292;SDS011;3179;54.350;10.102;2022-09-13T07:23:27;7.13;;;1.77;;
6292;SDS011;3179;54.350;10.102;2022-09-13T07:25:55;9.40;;;1.77;;
6292;SDS011;3179;54.350;10.102;2022-09-13T07:28:26;8.40;;;1.60;;
6292;SDS011;3179;54.350;10.102;2022-09-13T07:30:53;10.97;;;1.47;;
6292;SDS011;3179;54.350;10.102;2022-09-13T07:33:20;7.43;;;1.70;;
6292;SDS011;3179;54.350;10.102;2022-09-13T07:35:54;9.10;;;1.40;;
6292;SDS011;3179;54.350;10.102;2022-09-13T07:38:22;10.47;;;1.47;;
6292;SDS011;3179;54.350;10.102;2022-09-13T07:40:52;8.67;;;1.50;;
6292;SDS011;3179;54.350;10.102;2022-09-13T07:43:22;12.73;;;1.63;;
6292;SDS011;3179;54.350;10.102;2022-09-13T07:45:55;6.80;;;1.67;;
6292;SDS011;3179;54.350;10.102;2022-09-13T07:48:22;5.23;;;1.40;;
6292;SDS011;3179;54.350;10.102;2022-09-13T07:50:56;5.13;;;1.33;;
6292;SDS011;3179;54.350;10.102;2022-09-13T07:53:24;3.73;;;1.30;;
6292;SDS011;3179;54.350;10.102;2022-09-13T07:55:51;4.27;;;1.23;;
6292;SDS011;3179;54.350;10.102;2022-09-13T07:58:18;5.33;;;1.30;;
6292;SDS011;3179;54.350;10.102;2022-09-13T08:00:45;6.00;;;1.83;;
6292;SDS011;3179;54.350;10.102;2022-09-13T08:03:12;8.57;;;1.60;;
6292;SDS011;3179;54.350;10.102;2022-09-13T08:05:39;7.53;;;1.47;;
6292;SDS011;3179;54.350;10.102;2022-09-13T08:08:08;2.83;;;1.20;;
6292;SDS011;3179;54.350;10.102;2022-09-13T08:10:34;8.67;;;1.70;;
6292;SDS011;3179;54.350;10.102;2022-09-13T08:13:01;10.90;;;1.80;;
6292;SDS011;3179;54.350;10.102;2022-09-13T08:15:28;8.33;;;1.90;;
6292;SDS011;3179;54.350;10.102;2022-09-13T08:17:55;5.97;;;1.17;;
6292;SDS011;3179;54.350;10.102;2022-09-13T08:20:22;3.33;;;1.00;;
6292;SDS011;3179;54.350;10.102;2022-09-13T08:22:49;6.00;;;1.13;;
6292;SDS011;3179;54.350;10.102;2022-09-13T08:25:17;4.60;;;1.60;;
6292;SDS011;3179;54.350;10.102;2022-09-13T08:27:44;7.27;;;1.40;;
6292;SDS011;3179;54.350;10.102;2022-09-13T08:30:11;7.67;;;1.50;;
6292;SDS011;3179;54.350;10.102;2022-09-13T08:32:38;4.60;;;1.20;;
6292;SDS011;3179;54.350;10.102;2022-09-13T08:35:05;6.77;;;1.10;;
6292;SDS011;3179;54.350;10.102;2022-09-13T08:37:32;3.67;;;1.50;;
6292;SDS011;3179;54.350;10.102;2022-09-13T08:39:59;5.20;;;1.07;;
6292;SDS011;3179;54.350;10.102;2022-09-13T08:42:30;5.23;;;1.10;;
6292;SDS011;3179;54.350;10.102;2022-09-13T08:45:09;3.10;;;1.17;;
6292;SDS011;3179;54.350;10.102;2022-09-13T08:47:39;3.20;;;0.93;;
6292;SDS011;3179;54.350;10.102;2022-09-13T08:50:12;3.97;;;1.30;;
6292;SDS011;3179;54.350;10.102;2022-09-13T08:52:49;3.93;;;1.00;;
6292;SDS011;3179;54.350;10.102;2022-09-13T08:55:27;7.73;;;1.80;;
6292;SDS011;3179;54.350;10.102;2022-09-13T08:58:07;5.90;;;1.60;;
6292;SDS011;3179;54.350;10.102;2022-09-13T09:00:45;4.83;;;1.03;;
6292;SDS011;3179;54.350;10.102;2022-09-13T09:03:19;6.57;;;1.93;;
6292;SDS011;3179;54.350;10.102;2022-09-13T09:05:53;4.33;;;1.67;;
6292;SDS011;3179;54.350;10.102;2022-09-13T09:08:24;10.60;;;1.90;;
6292;SDS011;3179;54.350;10.102;2022-09-13T09:10:56;6.30;;;1.10;;
6292;SDS011;3179;54.350;10.102;2022-09-13T09:13:30;4.20;;;1.40;;
6292;SDS011;3179;54.350;10.102;2022-09-13T09:16:01;4.77;;;1.10;;
6292;SDS011;3179;54.350;10.102;2022-09-13T09:18:32;5.30;;;1.10;;
6292;SDS011;3179;54.350;10.102;2022-09-13T09:21:03;3.00;;;1.10;;
6292;SDS011;3179;54.350;10.102;2022-09-13T09:23:36;3.23;;;1.30;;
6292;SDS011;3179;54.350;10.102;2022-09-13T09:26:14;4.27;;;1.40;;
6292;SDS011;3179;54.350;10.102;2022-09-13T09:28:43;5.20;;;1.40;;
6292;SDS011;3179;54.350;10.102;2022-09-13T09:31:14;7.03;;;1.50;;
6292;SDS011;3179;54.350;10.102;2022-09-13T09:33:48;5.47;;;1.50;;
6292;SDS011;3179;54.350;10.102;2022-09-13T09:36:22;3.70;;;1.10;;
6292;SDS011;3179;54.350;10.102;2022-09-13T09:38:54;5.10;;;1.13;;
6292;SDS011;3179;54.350;10.102;2022-09-13T09:41:24;6.90;;;1.20;;
6292;SDS011;3179;54.350;10.102;2022-09-13T09:43:57;4.47;;;1.40;;
6292;SDS011;3179;54.350;10.102;2022-09-13T09:46:30;3.27;;;0.87;;
6292;SDS011;3179;54.350;10.102;2022-09-13T09:49:02;3.30;;;0.80;;
6292;SDS011;3179;54.350;10.102;2022-09-13T09:51:52;3.57;;;0.93;;
6292;SDS011;3179;54.350;10.102;2022-09-13T09:54:20;3.10;;;1.00;;
6292;SDS011;3179;54.350;10.102;2022-09-13T09:56:50;7.23;;;1.17;;
6292;SDS011;3179;54.350;10.102;2022-09-13T09:59:25;4.50;;;1.57;;
6292;SDS011;3179;54.350;10.102;2022-09-13T10:01:53;5.57;;;0.97;;
6292;SDS011;3179;54.350;10.102;2022-09-13T10:04:22;4.93;;;1.00;;
6292;SDS011;3179;54.350;10.102;2022-09-13T10:06:49;6.80;;;1.10;;
6292;SDS011;3179;54.350;10.102;2022-09-13T10:09:33;4.13;;;1.30;;
6292;SDS011;3179;54.350;10.102;2022-09-13T10:12:03;3.07;;;0.70;;
6292;SDS011;3179;54.350;10.102;2022-09-13T10:14:35;2.73;;;0.90;;
6292;SDS011;3179;54.350;10.102;2022-09-13T10:17:05;4.13;;;1.33;;
6292;SDS011;3179;54.350;10.102;2022-09-13T10:19:53;7.13;;;1.30;;
6292;SDS011;3179;54.350;10.102;2022-09-13T10:22:23;5.10;;;1.03;;
6292;SDS011;3179;54.350;10.102;2022-09-13T10:24:51;6.83;;;1.30;;
6292;SDS011;3179;54.350;10.102;2022-09-13T10:27:22;7.37;;;1.57;;
6292;SDS011;3179;54.350;10.102;2022-09-13T10:29:54;7.80;;;1.20;;
6292;SDS011;3179;54.350;10.102;2022-09-13T10:32:24;5.93;;;1.37;;
6292;SDS011;3179;54.350;10.102;2022-09-13T10:34:51;7.03;;;1.37;;
6292;SDS011;3179;54.350;10.102;2022-09-13T10:37:19;5.27;;;1.17;;
6292;SDS011;3179;54.350;10.102;2022-09-13T10:39:55;4.57;;;1.30;;
6292;SDS011;3179;54.350;10.102;2022-09-13T10:42:32;2.83;;;0.93;;
6292;SDS011;3179;54.350;10.102;2022-09-13T10:45:01;2.37;;;1.40;;
6292;SDS011;3179;54.350;10.102;2022-09-13T10:47:32;5.50;;;1.70;;
6292;SDS011;3179;54.350;10.102;2022-09-13T10:50:11;1.80;;;1.17;;
6292;SDS011;3179;54.350;10.102;2022-09-13T10:52:45;6.80;;;2.20;;
6292;SDS011;3179;54.350;10.102;2022-09-13T10:55:32;4.03;;;1.43;;
6292;SDS011;3179;54.350;10.102;2022-09-13T10:58:14;7.30;;;0.93;;
6292;SDS011;3179;54.350;10.102;2022-09-13T11:00:54;5.13;;;1.07;;
6292;SDS011;3179;54.350;10.102;2022-09-13T11:04:15;2.93;;;1.23;;
6292;SDS011;3179;54.350;10.102;2022-09-13T11:07:08;7.90;;;1.60;;
6292;SDS011;3179;54.350;10.102;2022-09-13T11:09:52;4.73;;;2.20;;
6292;SDS011;3179;54.350;10.102;2022-09-13T11:12:28;7.20;;;2.03;;
6292;SDS011;3179;54.350;10.102;2022-09-13T11:15:03;3.03;;;1.00;;
6292;SDS011;3179;54.350;10.102;2022-09-13T11:17:54;4.93;;;1.57;;
6292;SDS011;3179;54.350;10.102;2022-09-13T11:20:46;5.80;;;1.73;;
6292;SDS011;3179;54.350;10.102;2022-09-13T11:23:21;3.73;;;1.20;;
6292;SDS011;3179;54.350;10.102;2022-09-13T11:26:17;6.37;;;1.30;;
6292;SDS011;3179;54.350;10.102;2022-09-13T11:28:53;5.07;;;1.43;;
6292;SDS011;3179;54.350;10.102;2022-09-13T11:31:31;4.80;;;1.37;;
6292;SDS011;3179;54.350;10.102;2022-09-13T11:34:10;3.53;;;1.00;;
6292;SDS011;3179;54.350;10.102;2022-09-13T11:36:53;4.73;;;1.30;;
6292;SDS011;3179;54.350;10.102;2022-09-13T11:39:34;4.37;;;1.13;;
6292;SDS011;3179;54.350;10.102;2022-09-13T11:42:08;3.57;;;1.30;;
6292;SDS011;3179;54.350;10.102;2022-09-13T11:45:07;3.07;;;1.07;;
6292;SDS011;3179;54.350;10.102;2022-09-13T11:47:47;2.33;;;1.10;;
6292;SDS011;3179;54.350;10.102;2022-09-13T11:50:26;1.97;;;0.97;;
6292;SDS011;3179;54.350;10.102;2022-09-13T11:53:01;4.43;;;1.00;;
6292;SDS011;3179;54.350;10.102;2022-09-13T11:55:40;4.40;;;1.20;;
6292;SDS011;3179;54.350;10.102;2022-09-13T11:58:12;4.30;;;1.30;;
6292;SDS011;3179;54.350;10.102;2022-09-13T12:00:44;3.50;;;1.20;;
6292;SDS011;3179;54.350;10.102;2022-09-13T12:03:16;5.40;;;1.50;;
6292;SDS011;3179;54.350;10.102;2022-09-13T12:05:50;6.23;;;1.30;;
6292;SDS011;3179;54.350;10.102;2022-09-13T12:08:20;8.27;;;1.80;;
6292;SDS011;3179;54.350;10.102;2022-09-13T12:10:50;6.23;;;1.73;;
6292;SDS011;3179;54.350;10.102;2022-09-13T12:13:20;5.37;;;1.53;;
6292;SDS011;3179;54.350;10.102;2022-09-13T12:15:50;9.17;;;2.00;;
6292;SDS011;3179;54.350;10.102;2022-09-13T12:18:21;4.90;;;1.30;;
6292;SDS011;3179;54.350;10.102;2022-09-13T12:20:53;2.53;;;1.57;;
6292;SDS011;3179;54.350;10.102;2022-09-13T12:23:23;5.77;;;1.50;;
6292;SDS011;3179;54.350;10.102;2022-09-13T12:25:56;7.50;;;2.00;;
6292;SDS011;3179;54.350;10.102;2022-09-13T12:28:25;7.10;;;2.03;;
6292;SDS011;3179;54.350;10.102;2022-09-13T12:30:55;3.97;;;1.33;;
6292;SDS011;3179;54.350;10.102;2022-09-13T12:33:25;7.93;;;1.67;;
6292;SDS011;3179;54.350;10.102;2022-09-13T12:35:57;6.77;;;1.83;;
6292;SDS011;3179;54.350;10.102;2022-09-13T12:45:14;6.60;;;1.80;;
6292;SDS011;3179;54.350;10.102;2022-09-13T12:50:59;6.40;;;1.83;;
6292;SDS011;3179;54.350;10.102;2022-09-13T12:53:53;4.20;;;1.33;;
6292;SDS011;3179;54.350;10.102;2022-09-13T12:56:34;3.67;;;1.47;;
6292;SDS011;3179;54.350;10.102;2022-09-13T12:59:14;4.43;;;1.33;;
6292;SDS011;3179;54.350;10.102;2022-09-13T13:01:54;6.40;;;1.20;;
6292;SDS011;3179;54.350;10.102;2022-09-13T13:04:23;4.33;;;1.30;;
6292;SDS011;3179;54.350;10.102;2022-09-13T13:06:54;2.43;;;0.90;;
6292;SDS011;3179;54.350;10.102;2022-09-13T13:09:26;4.40;;;0.90;;
6292;SDS011;3179;54.350;10.102;2022-09-13T13:12:02;3.17;;;1.23;;
6292;SDS011;3179;54.350;10.102;2022-09-13T13:14:44;4.37;;;1.20;;
6292;SDS011;3179;54.350;10.102;2022-09-13T13:17:33;4.47;;;1.10;;
6292;SDS011;3179;54.350;10.102;2022-09-13T13:23:34;6.33;;;1.20;;
6292;SDS011;3179;54.350;10.102;2022-09-13T13:26:07;2.57;;;1.30;;
6292;SDS011;3179;54.350;10.102;2022-09-13T13:31:40;3.03;;;0.90;;
6292;SDS011;3179;54.350;10.102;2022-09-13T13:36:53;2.67;;;0.90;;
6292;SDS011;3179;54.350;10.102;2022-09-13T13:39:33;4.57;;;1.00;;
6292;SDS011;3179;54.350;10.102;2022-09-13T13:42:09;3.40;;;1.17;;
6292;SDS011;3179;54.350;10.102;2022-09-13T13:44:57;6.67;;;1.73;;
6292;SDS011;3179;54.350;10.102;2022-09-13T13:47:49;5.10;;;1.40;;
6292;SDS011;3179;54.350;10.102;2022-09-13T13:50:20;4.83;;;1.07;;
6292;SDS011;3179;54.350;10.102;2022-09-13T13:52:52;4.07;;;1.10;;
6292;SDS011;3179;54.350;10.102;2022-09-13T13:55:30;4.53;;;1.40;;
6292;SDS011;3179;54.350;10.102;2022-09-13T13:58:28;3.20;;;1.40;;
6292;SDS011;3179;54.350;10.102;2022-09-13T14:00:59;3.80;;;1.37;;
6292;SDS011;3179;54.350;10.102;2022-09-13T14:03:29;4.60;;;1.20;;
6292;SDS011;3179;54.350;10.102;2022-09-13T14:06:09;6.43;;;1.60;;
6292;SDS011;3179;54.350;10.102;2022-09-13T14:08:43;5.40;;;1.60;;
6292;SDS011;3179;54.350;10.102;2022-09-13T14:11:21;4.17;;;1.30;;
6292;SDS011;3179;54.350;10.102;2022-09-13T14:14:03;7.97;;;1.30;;
6292;SDS011;3179;54.350;10.102;2022-09-13T14:16:47;3.90;;;1.60;;
6292;SDS011;3179;54.350;10.102;2022-09-13T14:19:23;4.30;;;1.37;;
6292;SDS011;3179;54.350;10.102;2022-09-13T14:24:40;5.00;;;1.30;;
6292;SDS011;3179;54.350;10.102;2022-09-13T14:27:13;6.23;;;1.60;;
6292;SDS011;3179;54.350;10.102;2022-09-13T14:29:49;5.23;;;2.00;;
6292;SDS011;3179;54.350;10.102;2022-09-13T14:32:18;4.50;;;1.30;;
6292;SDS011;3179;54.350;10.102;2022-09-13T14:34:50;5.47;;;1.70;;
6292;SDS011;3179;54.350;10.102;2022-09-13T14:37:22;4.23;;;1.20;;
6292;SDS011;3179;54.350;10.102;2022-09-13T14:39:53;5.00;;;1.53;;
6292;SDS011;3179;54.350;10.102;2022-09-13T14:42:22;6.23;;;1.57;;
6292;SDS011;3179;54.350;10.102;2022-09-13T14:44:49;3.03;;;1.07;;
6292;SDS011;3179;54.350;10.102;2022-09-13T14:47:17;2.57;;;1.10;;
6292;SDS011;3179;54.350;10.102;2022-09-13T14:49:51;5.57;;;1.43;;
6292;SDS011;3179;54.350;10.102;2022-09-13T14:52:23;4.80;;;1.30;;
6292;SDS011;3179;54.350;10.102;2022-09-13T14:54:55;4.20;;;1.10;;
6292;SDS011;3179;54.350;10.102;2022-09-13T14:57:27;5.07;;;1.23;;
6292;SDS011;3179;54.350;10.102;2022-09-13T14:59:59;3.13;;;1.10;;
6292;SDS011;3179;54.350;10.102;2022-09-13T15:02:34;2.97;;;1.00;;
6292;SDS011;3179;54.350;10.102;2022-09-13T15:05:04;3.40;;;1.10;;
6292;SDS011;3179;54.350;10.102;2022-09-13T15:07:37;4.50;;;1.20;;
6292;SDS011;3179;54.350;10.102;2022-09-13T15:10:06;4.43;;;0.80;;
6292;SDS011;3179;54.350;10.102;2022-09-13T15:12:36;3.20;;;0.93;;
6292;SDS011;3179;54.350;10.102;2022-09-13T15:15:21;2.40;;;0.93;;
6292;SDS011;3179;54.350;10.102;2022-09-13T15:18:21;2.47;;;0.80;;
6292;SDS011;3179;54.350;10.102;2022-09-13T15:20:50;2.13;;;0.97;;
6292;SDS011;3179;54.350;10.102;2022-09-13T15:23:20;2.87;;;1.13;;
6292;SDS011;3179;54.350;10.102;2022-09-13T15:25:50;6.03;;;1.07;;
6292;SDS011;3179;54.350;10.102;2022-09-13T15:28:21;2.87;;;0.80;;
6292;SDS011;3179;54.350;10.102;2022-09-13T15:30:50;3.23;;;0.90;;
6292;SDS011;3179;54.350;10.102;2022-09-13T15:33:21;1.80;;;0.83;;
6292;SDS011;3179;54.350;10.102;2022-09-13T15:35:50;4.93;;;1.07;;
6292;SDS011;3179;54.350;10.102;2022-09-13T15:38:24;4.13;;;1.13;;
6292;SDS011;3179;54.350;10.102;2022-09-13T15:41:00;2.60;;;1.23;;
6292;SDS011;3179;54.350;10.102;2022-09-13T15:43:29;3.30;;;0.90;;
6292;SDS011;3179;54.350;10.102;2022-09-13T15:45:56;2.57;;;0.83;;
6292;SDS011;3179;54.350;10.102;2022-09-13T15:48:26;2.40;;;0.73;;
6292;SDS011;3179;54.350;10.102;2022-09-13T15:51:03;1.30;;;0.73;;
6292;SDS011;3179;54.350;10.102;2022-09-13T15:53:34;1.73;;;0.80;;
6292;SDS011;3179;54.350;10.102;2022-09-13T15:56:02;10.20;;;1.50;;
6292;SDS011;3179;54.350;10.102;2022-09-13T15:58:31;3.20;;;1.00;;